Tasman Mariner — VRWW8 — position and weather

sailwx.info

Track history (hours):
 
Tides and Currents Weather Stations Pressure Air Temp Water Temp Dewpoint Dewpoint Depression Visibility Wind Speed Wind Dir Waves Ship Positions

Tasman Mariner

Last reported at 2015-Jan-28 00:00 UTC. Time now 2015-Jan-28 09:17 UTC.
Position S 19°30' E 152°06'.

Length 184 m; beam 27 m; draft 10 m.

Type: Cargo ship. MMSI: 477860000.

Wind from 360 at 5 knots

Waves 0.5 meters (2 feet), 3 second period

Barometer 1015.0 mb
Air temperature 31.0 ° C
Visibility: greater than 10.8 NM
Dewpoint 24.6 ° C
Water temperature 30.0 ° C

Date/timePositionNaut miles runAvg speedWind from/ knotsBaromVisibWave heightAir tempDewpointWater temp
2015-Jan-28 00:00S 19°30' E 152°06'31113.0 360 / 51015.010.8 0.531.024.630.0
2015-Jan-27 00:00S 24°30' E 153°36'6113.3 110 / 151008.910.8 1.532.025.030.0
2015-Jan-26 19:25S 25°31' E 153°31'5514.1
2015-Jan-26 15:31S 26°24' E 153°18'1413.9
2015-Jan-26 14:30S 26°38' E 153°15'1010.8
2015-Jan-26 13:33S 26°47' E 153°11'1212.2
2015-Jan-26 12:34S 26°59' E 153°14'1313.3
2015-Jan-26 11:33S 27°11' E 153°21'1312.9
2015-Jan-26 10:33S 27°21' E 153°11'1 0.8
2015-Jan-26 09:31S 27°22' E 153°11'0 0.0
2015-Jan-26 08:31S 27°22' E 153°11'0 0.0
2015-Jan-26 07:31S 27°22' E 153°11'0 0.0
2015-Jan-26 06:31S 27°22' E 153°11'0 0.0
2015-Jan-26 05:31S 27°22' E 153°11'0 0.0
2015-Jan-26 04:31S 27°22' E 153°11'0 0.0
2015-Jan-26 03:31S 27°22' E 153°11'0 0.0
2015-Jan-26 02:31S 27°22' E 153°11'0 0.0
2015-Jan-26 01:31S 27°22' E 153°11'0 0.0
2015-Jan-26 00:31S 27°22' E 153°11'0 0.0
2015-Jan-25 23:31S 27°22' E 153°11'0 0.0
2015-Jan-25 22:31S 27°22' E 153°11'0 0.0
2015-Jan-25 21:31S 27°22' E 153°11'0 0.0
2015-Jan-25 20:31S 27°22' E 153°11'0 0.0
2015-Jan-25 19:31S 27°22' E 153°11'0 0.0
2015-Jan-25 18:31S 27°22' E 153°11'0 0.0
2015-Jan-25 17:31S 27°22' E 153°11'0 0.0
2015-Jan-25 16:31S 27°22' E 153°11'0 0.0
2015-Jan-25 15:31S 27°22' E 153°11'0 0.0
2015-Jan-25 14:31S 27°22' E 153°11'0 0.0
2015-Jan-25 13:31S 27°22' E 153°11'0 0.0
2015-Jan-25 12:34S 27°22' E 153°11'5 5.2
2015-Jan-25 11:34S 27°17' E 153°14'9 9.3
2015-Jan-25 10:34S 27°10' E 153°21'1111.5
2015-Jan-25 09:33S 27°00' E 153°15'1212.4
2015-Jan-25 08:34S 26°48' E 153°11'5 5.0
2015-Jan-25 07:33S 26°44' E 153°12'0 0.2
2015-Jan-25 06:33S 26°43' E 153°12'6 5.8
2015-Jan-25 05:33S 26°47' E 153°18'10 9.7
2015-Jan-25 04:33S 26°51' E 153°28'9 9.0
2015-Jan-25 03:33S 26°56' E 153°36'9 8.6
2015-Jan-25 02:32S 27°05' E 153°39'9 9.6
2015-Jan-25 01:33S 27°14' E 153°39'1010.0
2015-Jan-25 00:33S 27°24' E 153°39'712.1
2015-Jan-25 00:00S 27°30' E 153°36'512.0 010 / 101007.810.8 0.526.522.827.0
2015-Jan-24 23:33S 27°34' E 153°40'10 9.7
2015-Jan-24 22:33S 27°43' E 153°41'1111.0
2015-Jan-24 21:33S 27°54' E 153°41'1212.1
2015-Jan-24 20:33S 28°07' E 153°42'1211.3
2015-Jan-24 19:29S 28°19' E 153°43'1010.8
2015-Jan-24 18:31S 28°29' E 153°43'19810.7
2015-Jan-24 00:00S 31°42' E 152°54'4010.9 290 / 51010.310.8 0.524.021.825.0
2015-Jan-23 20:22S 32°20' E 152°41'8 9.6
2015-Jan-23 19:33S 32°27' E 152°38'10 9.9
2015-Jan-23 18:32S 32°35' E 152°30'1110.9
2015-Jan-23 17:33S 32°43' E 152°22'1110.9
2015-Jan-23 16:33S 32°50' E 152°12'1111.1
2015-Jan-23 15:33S 32°53' E 151°59'1010.1
2015-Jan-23 14:33S 32°55' E 151°47'2 2.0
2015-Jan-23 13:32S 32°54' E 151°46'0 0.0
2015-Jan-23 12:29S 32°54' E 151°46'0 0.0
2015-Jan-23 11:32S 32°54' E 151°46'0 0.0
2015-Jan-23 10:32S 32°54' E 151°46'0 0.0
2015-Jan-23 09:32S 32°54' E 151°46'0 0.0
2015-Jan-23 08:32S 32°54' E 151°46'0 0.0
2015-Jan-23 07:32S 32°54' E 151°46'0 0.0
2015-Jan-23 06:32S 32°54' E 151°46'0 0.0
2015-Jan-23 05:29S 32°54' E 151°46'0 0.0
2015-Jan-23 04:32S 32°54' E 151°46'0 0.0
2015-Jan-23 03:32S 32°54' E 151°46'0 0.0
2015-Jan-23 02:29S 32°54' E 151°46'0 0.0
2015-Jan-23 01:17S 32°54' E 151°46'0 0.0
2015-Jan-23 00:32S 32°54' E 151°46'0 0.0
2015-Jan-22 23:32S 32°54' E 151°46'0 0.0
2015-Jan-22 22:32S 32°54' E 151°46'0 0.0
2015-Jan-22 21:32S 32°54' E 151°46'0 0.0
2015-Jan-22 20:31S 32°54' E 151°46'3 2.8
2015-Jan-22 19:32S 32°55' E 151°49'6 6.3
2015-Jan-22 18:33S 33°01' E 151°52'268 6.4
2015-Jan-21 00:33S 37°15' E 150°10'916.4
2015-Jan-21 00:00S 37°24' E 150°06'510.7 010 / 121015.4 5.4 1.020.018.422.0
2015-Jan-20 23:33S 37°28' E 150°08'1312.5
2015-Jan-20 22:33S 37°39' E 149°59'1313.4
2015-Jan-20 21:33S 37°49' E 149°49'1413.3
2015-Jan-20 20:31S 37°58' E 149°35'1513.0
2015-Jan-20 19:24S 38°07' E 149°20'1112.9
2015-Jan-20 18:32S 38°14' E 149°09'1313.0
2015-Jan-20 17:33S 38°21' E 148°57'1313.0
2015-Jan-20 16:33S 38°29' E 148°43'1313.0
2015-Jan-20 15:33S 38°38' E 148°31'1212.4
2015-Jan-20 14:33S 38°45' E 148°18'1512.1
2015-Jan-20 13:17S 38°51' E 147°60'1312.4
2015-Jan-20 12:16S 38°56' E 147°45'912.1
2015-Jan-20 11:31S 38°59' E 147°34'1212.2
2015-Jan-20 10:33S 39°03' E 147°20'1312.6
2015-Jan-20 09:33S 39°08' E 147°05'1313.0
2015-Jan-20 08:33S 39°12' E 146°49'1313.5
2015-Jan-20 07:34S 39°17' E 146°32'1413.8
2015-Jan-20 06:33S 39°16' E 146°15'1413.5
2015-Jan-20 05:33S 39°09' E 146°00'1414.1
2015-Jan-20 04:34S 39°01' E 145°45'1413.9
2015-Jan-20 03:33S 38°53' E 145°30'  
Track history (hours):
 
Tides and Currents Weather Stations Pressure Air Temp Water Temp Dewpoint Dewpoint Depression Visibility Wind Speed Wind Dir Waves Ship Positions

Tasman Mariner

Last reported at 2015-Jan-28 00:00 UTC. Time now 2015-Jan-28 09:17 UTC.
Position S 19°30' E 152°06'.

Length 184 m; beam 27 m; draft 10 m.

Type: Cargo ship. MMSI: 477860000.

Wind from 360 at 5 knots

Waves 0.5 meters (2 feet), 3 second period

Barometer 1015.0 mb
Air temperature 31.0 ° C
Visibility: greater than 10.8 NM
Dewpoint 24.6 ° C
Water temperature 30.0 ° C

Date/timePositionNaut miles runAvg speedWind from/ knotsBaromVisibWave heightAir tempDewpointWater temp
2015-Jan-28 00:00S 19°30' E 152°06'31113.0 360 / 51015.010.8 0.531.024.630.0
2015-Jan-27 00:00S 24°30' E 153°36'6113.3 110 / 151008.910.8 1.532.025.030.0
2015-Jan-26 19:25S 25°31' E 153°31'5514.1
2015-Jan-26 15:31S 26°24' E 153°18'1413.9
2015-Jan-26 14:30S 26°38' E 153°15'1010.8
2015-Jan-26 13:33S 26°47' E 153°11'1212.2
2015-Jan-26 12:34S 26°59' E 153°14'1313.3
2015-Jan-26 11:33S 27°11' E 153°21'1312.9
2015-Jan-26 10:33S 27°21' E 153°11'1 0.8
2015-Jan-26 09:31S 27°22' E 153°11'0 0.0
2015-Jan-26 08:31S 27°22' E 153°11'0 0.0
2015-Jan-26 07:31S 27°22' E 153°11'0 0.0
2015-Jan-26 06:31S 27°22' E 153°11'0 0.0
2015-Jan-26 05:31S 27°22' E 153°11'0 0.0
2015-Jan-26 04:31S 27°22' E 153°11'0 0.0
2015-Jan-26 03:31S 27°22' E 153°11'0 0.0
2015-Jan-26 02:31S 27°22' E 153°11'0 0.0
2015-Jan-26 01:31S 27°22' E 153°11'0 0.0
2015-Jan-26 00:31S 27°22' E 153°11'0 0.0
2015-Jan-25 23:31S 27°22' E 153°11'0 0.0
2015-Jan-25 22:31S 27°22' E 153°11'0 0.0
2015-Jan-25 21:31S 27°22' E 153°11'0 0.0
2015-Jan-25 20:31S 27°22' E 153°11'0 0.0
2015-Jan-25 19:31S 27°22' E 153°11'0 0.0
2015-Jan-25 18:31S 27°22' E 153°11'0 0.0
2015-Jan-25 17:31S 27°22' E 153°11'0 0.0
2015-Jan-25 16:31S 27°22' E 153°11'0 0.0
2015-Jan-25 15:31S 27°22' E 153°11'0 0.0
2015-Jan-25 14:31S 27°22' E 153°11'0 0.0
2015-Jan-25 13:31S 27°22' E 153°11'0 0.0
2015-Jan-25 12:34S 27°22' E 153°11'5 5.2
2015-Jan-25 11:34S 27°17' E 153°14'9 9.3
2015-Jan-25 10:34S 27°10' E 153°21'1111.5
2015-Jan-25 09:33S 27°00' E 153°15'1212.4
2015-Jan-25 08:34S 26°48' E 153°11'5 5.0
2015-Jan-25 07:33S 26°44' E 153°12'0 0.2
2015-Jan-25 06:33S 26°43' E 153°12'6 5.8
2015-Jan-25 05:33S 26°47' E 153°18'10 9.7
2015-Jan-25 04:33S 26°51' E 153°28'9 9.0
2015-Jan-25 03:33S 26°56' E 153°36'9 8.6
2015-Jan-25 02:32S 27°05' E 153°39'9 9.6
2015-Jan-25 01:33S 27°14' E 153°39'1010.0
2015-Jan-25 00:33S 27°24' E 153°39'712.1
2015-Jan-25 00:00S 27°30' E 153°36'512.0 010 / 101007.810.8 0.526.522.827.0
2015-Jan-24 23:33S 27°34' E 153°40'10 9.7
2015-Jan-24 22:33S 27°43' E 153°41'1111.0
2015-Jan-24 21:33S 27°54' E 153°41'1212.1
2015-Jan-24 20:33S 28°07' E 153°42'1211.3
2015-Jan-24 19:29S 28°19' E 153°43'1010.8
2015-Jan-24 18:31S 28°29' E 153°43'19810.7
2015-Jan-24 00:00S 31°42' E 152°54'4010.9 290 / 51010.310.8 0.524.021.825.0
2015-Jan-23 20:22S 32°20' E 152°41'8 9.6
2015-Jan-23 19:33S 32°27' E 152°38'10 9.9
2015-Jan-23 18:32S 32°35' E 152°30'1110.9
2015-Jan-23 17:33S 32°43' E 152°22'1110.9
2015-Jan-23 16:33S 32°50' E 152°12'1111.1
2015-Jan-23 15:33S 32°53' E 151°59'1010.1
2015-Jan-23 14:33S 32°55' E 151°47'2 2.0
2015-Jan-23 13:32S 32°54' E 151°46'0 0.0
2015-Jan-23 12:29S 32°54' E 151°46'0 0.0
2015-Jan-23 11:32S 32°54' E 151°46'0 0.0
2015-Jan-23 10:32S 32°54' E 151°46'0 0.0
2015-Jan-23 09:32S 32°54' E 151°46'0 0.0
2015-Jan-23 08:32S 32°54' E 151°46'0 0.0
2015-Jan-23 07:32S 32°54' E 151°46'0 0.0
2015-Jan-23 06:32S 32°54' E 151°46'0 0.0
2015-Jan-23 05:29S 32°54' E 151°46'0 0.0
2015-Jan-23 04:32S 32°54' E 151°46'0 0.0
2015-Jan-23 03:32S 32°54' E 151°46'0 0.0
2015-Jan-23 02:29S 32°54' E 151°46'0 0.0
2015-Jan-23 01:17S 32°54' E 151°46'0 0.0
2015-Jan-23 00:32S 32°54' E 151°46'0 0.0
2015-Jan-22 23:32S 32°54' E 151°46'0 0.0
2015-Jan-22 22:32S 32°54' E 151°46'0 0.0
2015-Jan-22 21:32S 32°54' E 151°46'0 0.0
2015-Jan-22 20:31S 32°54' E 151°46'3 2.8
2015-Jan-22 19:32S 32°55' E 151°49'6 6.3
2015-Jan-22 18:33S 33°01' E 151°52'268 6.4
2015-Jan-21 00:33S 37°15' E 150°10'916.4
2015-Jan-21 00:00S 37°24' E 150°06'510.7 010 / 121015.4 5.4 1.020.018.422.0
2015-Jan-20 23:33S 37°28' E 150°08'1312.5
2015-Jan-20 22:33S 37°39' E 149°59'1313.4
2015-Jan-20 21:33S 37°49' E 149°49'1413.3
2015-Jan-20 20:31S 37°58' E 149°35'1513.0
2015-Jan-20 19:24S 38°07' E 149°20'1112.9
2015-Jan-20 18:32S 38°14' E 149°09'1313.0
2015-Jan-20 17:33S 38°21' E 148°57'1313.0
2015-Jan-20 16:33S 38°29' E 148°43'1313.0
2015-Jan-20 15:33S 38°38' E 148°31'1212.4
2015-Jan-20 14:33S 38°45' E 148°18'1512.1
2015-Jan-20 13:17S 38°51' E 147°60'1312.4
2015-Jan-20 12:16S 38°56' E 147°45'912.1
2015-Jan-20 11:31S 38°59' E 147°34'1212.2
2015-Jan-20 10:33S 39°03' E 147°20'1312.6
2015-Jan-20 09:33S 39°08' E 147°05'1313.0
2015-Jan-20 08:33S 39°12' E 146°49'1313.5
2015-Jan-20 07:34S 39°17' E 146°32'1413.8
2015-Jan-20 06:33S 39°16' E 146°15'1413.5
2015-Jan-20 05:33S 39°09' E 146°00'1414.1
2015-Jan-20 04:34S 39°01' E 145°45'1413.9
2015-Jan-20 03:33S 38°53' E 145°30'  

Dump ship's entire track history